Time;durP1;ratioP1;P1;durP2;ratioP2;P2;SDS_P1;SDS_P2;PMS_P1;PMS_P2;Temp;Humidity;BMP_temperature;BMP_pressure;BME280_temperature;BME280_humidity;BME280_pressure;Samples;Min_cycle;Max_cycle;Signal;HPM_P1;HPM_P2
2021/09/22 00:01:57;;;;;;;20.13;10.27;;;;;;;;;;6171741;23;20169;-93
2021/09/22 00:05:02;;;;;;;17.17;9.30;;;;;;;;;;6174354;23;20153;-91
2021/09/22 00:08:07;;;;;;;15.13;8.88;;;;;;;;;;6173841;23;20172;-89
2021/09/22 00:11:14;;;;;;;17.85;9.90;;;;;;;;;;6176029;23;20167;-90
2021/09/22 00:14:19;;;;;;;20.33;9.63;;;;;;;;;;6174576;23;20240;-91
2021/09/22 00:17:24;;;;;;;15.35;9.18;;;;;;;;;;6175169;23;20167;-89
2021/09/22 00:20:30;;;;;;;15.27;9.40;;;;;;;;;;6173360;23;20164;-91
2021/09/22 00:23:37;;;;;;;14.85;9.88;;;;;;;;;;6173402;23;20173;-90
2021/09/22 00:26:43;;;;;;;18.27;9.90;;;;;;;;;;6171645;23;20185;-88
2021/09/22 00:29:48;;;;;;;15.82;9.85;;;;;;;;;;6172442;23;20168;-91
2021/09/22 00:32:53;;;;;;;19.88;10.07;;;;;;;;;;6171122;23;20169;-90
2021/09/22 00:35:59;;;;;;;15.38;8.75;;;;;;;;;;6171147;23;20221;-91
2021/09/22 00:39:06;;;;;;;14.07;9.35;;;;;;;;;;6172580;23;20191;-89
2021/09/22 00:42:14;;;;;;;17.33;10.18;;;;;;;;;;6174833;23;20213;-89
2021/09/22 00:45:19;;;;;;;16.13;9.82;;;;;;;;;;6175052;23;20216;-91
2021/09/22 00:48:26;;;;;;;18.70;10.77;;;;;;;;;;6174317;23;20168;-91
2021/09/22 00:51:35;;;;;;;15.07;10.02;;;;;;;;;;6174391;23;20173;-90
2021/09/22 00:54:42;;;;;;;18.98;9.88;;;;;;;;;;6174487;23;20164;-92
2021/09/22 00:57:50;;;;;;;17.85;10.77;;;;;;;;;;6173113;23;20173;-92
2021/09/22 01:00:56;;;;;;;15.63;10.00;;;;;;;;;;6174758;23;20181;-91
2021/09/22 01:04:03;;;;;;;15.75;10.13;;;;;;;;;;6174669;23;20241;-90
2021/09/22 01:07:09;;;;;;;18.38;10.82;;;;;;;;;;6173313;23;20176;-91
2021/09/22 01:10:15;;;;;;;18.27;11.02;;;;;;;;;;6174791;23;20176;-93
2021/09/22 01:13:23;;;;;;;16.58;10.93;;;;;;;;;;6173896;23;20169;-92
2021/09/22 01:16:28;;;;;;;19.33;10.93;;;;;;;;;;6173030;23;20161;-92
2021/09/22 01:19:33;;;;;;;19.55;11.90;;;;;;;;;;6174578;23;20192;-89
2021/09/22 01:22:40;;;;;;;20.98;11.18;;;;;;;;;;6172958;23;20212;-93
2021/09/22 01:25:48;;;;;;;18.15;10.95;;;;;;;;;;6173084;23;20172;-90
2021/09/22 01:28:53;;;;;;;21.08;10.85;;;;;;;;;;6172989;23;20180;-91
2021/09/22 01:31:58;;;;;;;17.10;11.00;;;;;;;;;;6173274;23;20181;-91
2021/09/22 01:35:04;;;;;;;19.00;11.32;;;;;;;;;;6173913;23;20176;-90
2021/09/22 01:38:34;;;;;;;17.85;10.88;;;;;;;;;;6173672;23;20191;-91
2021/09/22 01:41:52;;;;;;;21.42;11.20;;;;;;;;;;6173203;23;20177;-89
2021/09/22 01:45:00;;;;;;;19.10;10.63;;;;;;;;;;6173091;23;20258;-91
2021/09/22 01:48:12;;;;;;;18.27;10.65;;;;;;;;;;6173475;23;20176;-91
2021/09/22 01:51:17;;;;;;;17.38;10.80;;;;;;;;;;6175947;23;20173;-90
2021/09/22 01:54:48;;;;;;;21.67;11.45;;;;;;;;;;6172111;23;20192;-91
2021/09/22 01:57:55;;;;;;;22.27;11.13;;;;;;;;;;6173597;23;20232;-90
2021/09/22 02:01:23;;;;;;;18.98;11.20;;;;;;;;;;6174009;23;20160;-91
2021/09/22 02:04:35;;;;;;;16.83;10.75;;;;;;;;;;6172767;23;20517;-89
2021/09/22 02:07:45;;;;;;;18.35;10.98;;;;;;;;;;6172734;23;20171;-91
2021/09/22 02:10:53;;;;;;;18.13;10.73;;;;;;;;;;6172081;23;20212;-91
2021/09/22 02:13:59;;;;;;;16.63;10.45;;;;;;;;;;6170924;23;20192;-91
2021/09/22 02:17:09;;;;;;;21.05;11.35;;;;;;;;;;6171618;23;20604;-90
2021/09/22 02:20:18;;;;;;;19.85;11.73;;;;;;;;;;6170803;23;20220;-90
2021/09/22 02:23:38;;;;;;;19.67;11.43;;;;;;;;;;6172986;23;20514;-92
2021/09/22 02:26:45;;;;;;;17.75;11.60;;;;;;;;;;6172618;23;20173;-91
2021/09/22 02:29:55;;;;;;;25.85;11.63;;;;;;;;;;6172119;23;20228;-90
2021/09/22 02:33:00;;;;;;;18.27;11.52;;;;;;;;;;6171344;23;20228;-89
2021/09/22 02:36:07;;;;;;;21.63;12.85;;;;;;;;;;6171345;23;20160;-90
2021/09/22 02:39:25;;;;;;;19.77;11.60;;;;;;;;;;6173154;23;20244;-92
2021/09/22 02:42:32;;;;;;;19.83;11.60;;;;;;;;;;6172340;23;20616;-91
2021/09/22 02:45:37;;;;;;;19.73;12.10;;;;;;;;;;6173538;23;20202;-89
2021/09/22 02:48:43;;;;;;;18.45;11.85;;;;;;;;;;6172962;23;20168;-89
2021/09/22 02:51:48;;;;;;;22.35;12.00;;;;;;;;;;6171348;23;20172;-89
2021/09/22 02:54:53;;;;;;;20.17;12.13;;;;;;;;;;6171884;23;20152;-91
2021/09/22 02:58:04;;;;;;;18.95;11.50;;;;;;;;;;6172351;23;20288;-89
2021/09/22 03:01:10;;;;;;;20.83;11.60;;;;;;;;;;6171498;23;20480;-90
2021/09/22 03:04:18;;;;;;;20.92;12.18;;;;;;;;;;6172607;23;20184;-91
2021/09/22 03:07:23;;;;;;;23.52;12.43;;;;;;;;;;6170280;23;20163;-92
2021/09/22 03:10:29;;;;;;;19.55;12.05;;;;;;;;;;6170419;23;20225;-90
2021/09/22 03:13:36;;;;;;;19.48;11.55;;;;;;;;;;6171359;23;20172;-89
2021/09/22 03:16:42;;;;;;;20.50;12.35;;;;;;;;;;6170160;23;20208;-91
2021/09/22 03:19:46;;;;;;;22.10;11.85;;;;;;;;;;6171051;23;20180;-88
2021/09/22 03:22:52;;;;;;;22.55;12.68;;;;;;;;;;6170192;23;20627;-89
2021/09/22 03:25:59;;;;;;;20.95;12.13;;;;;;;;;;6171200;23;20160;-88
2021/09/22 03:29:07;;;;;;;18.92;12.60;;;;;;;;;;6172784;23;20161;-89
2021/09/22 03:32:13;;;;;;;23.95;12.73;;;;;;;;;;6172466;23;20219;-91
2021/09/22 03:35:20;;;;;;;23.17;13.00;;;;;;;;;;6171592;23;20208;-89
2021/09/22 03:38:25;;;;;;;25.48;13.15;;;;;;;;;;6174532;23;20296;-92
2021/09/22 03:41:35;;;;;;;20.88;12.80;;;;;;;;;;6173562;23;20176;-91
2021/09/22 03:44:42;;;;;;;21.83;13.38;;;;;;;;;;6156110;23;20164;-89
2021/09/22 03:47:47;;;;;;;23.95;13.93;;;;;;;;;;6175220;23;20172;-90
2021/09/22 03:50:53;;;;;;;24.55;14.60;;;;;;;;;;6172847;23;20500;-88
2021/09/22 03:54:24;;;;;;;26.02;15.23;;;;;;;;;;6174746;23;20164;-91
2021/09/22 03:57:29;;;;;;;27.73;14.35;;;;;;;;;;6174931;23;20217;-91
2021/09/22 04:00:42;;;;;;;26.42;15.25;;;;;;;;;;6175022;23;20196;-90
2021/09/22 04:03:48;;;;;;;22.10;13.63;;;;;;;;;;6174479;23;20208;-89
2021/09/22 04:06:53;;;;;;;22.30;13.48;;;;;;;;;;6174884;23;20172;-89
2021/09/22 04:09:58;;;;;;;22.27;13.93;;;;;;;;;;6174855;23;20216;-90
2021/09/22 04:13:04;;;;;;;24.00;14.02;;;;;;;;;;6174149;23;20167;-91
2021/09/22 04:16:16;;;;;;;22.08;13.20;;;;;;;;;;6174030;23;20205;-90
2021/09/22 04:19:21;;;;;;;28.70;13.73;;;;;;;;;;6172349;23;20212;-93
2021/09/22 04:22:26;;;;;;;24.73;14.02;;;;;;;;;;6174037;23;20172;-91
2021/09/22 04:25:32;;;;;;;24.35;14.50;;;;;;;;;;6175966;23;20173;-91
2021/09/22 04:28:42;;;;;;;24.30;13.75;;;;;;;;;;6175398;23;20193;-89
2021/09/22 04:32:08;;;;;;;26.33;14.52;;;;;;;;;;6175722;23;20501;-90
2021/09/22 04:35:34;;;;;;;22.90;13.50;;;;;;;;;;6174803;23;20173;-91
2021/09/22 04:39:00;;;;;;;30.02;13.85;;;;;;;;;;6166050;23;20203;-91
2021/09/22 04:42:24;;;;;;;24.05;14.15;;;;;;;;;;6174646;23;20506;-89
2021/09/22 04:45:49;;;;;;;23.27;13.45;;;;;;;;;;6175944;23;20161;-91
2021/09/22 04:49:15;;;;;;;24.83;13.98;;;;;;;;;;6175539;23;20230;-89
2021/09/22 04:52:39;;;;;;;23.35;13.65;;;;;;;;;;6173814;23;20173;-89
2021/09/22 04:56:29;;;;;;;25.83;14.35;;;;;;;;;;6174956;23;20189;-90
2021/09/22 04:59:53;;;;;;;24.98;14.50;;;;;;;;;;6175226;23;20640;-91
2021/09/22 05:03:17;;;;;;;24.27;15.07;;;;;;;;;;6173569;23;20173;-89
2021/09/22 05:06:43;;;;;;;23.75;14.10;;;;;;;;;;6175188;23;20233;-89
2021/09/22 05:10:08;;;;;;;26.33;15.23;;;;;;;;;;6172766;23;20172;-91
2021/09/22 05:13:32;;;;;;;27.50;14.23;;;;;;;;;;6173997;23;20173;-90
2021/09/22 05:16:56;;;;;;;27.55;15.18;;;;;;;;;;6173125;23;20444;-89
2021/09/22 05:20:21;;;;;;;31.02;15.65;;;;;;;;;;6173521;23;20212;-91
2021/09/22 05:23:47;;;;;;;27.63;14.85;;;;;;;;;;6173479;23;20293;-89
2021/09/22 05:27:11;;;;;;;31.10;15.40;;;;;;;;;;6174452;23;20173;-92
2021/09/22 05:30:36;;;;;;;28.00;15.07;;;;;;;;;;6175592;23;20161;-93
2021/09/22 05:34:00;;;;;;;29.75;15.20;;;;;;;;;;6173872;23;20681;-90
2021/09/22 05:37:26;;;;;;;25.92;14.52;;;;;;;;;;6173700;23;20172;-92
2021/09/22 05:40:52;;;;;;;28.25;14.55;;;;;;;;;;6173372;23;20200;-91
2021/09/22 05:44:16;;;;;;;27.90;14.85;;;;;;;;;;6173038;23;20169;-93
2021/09/22 05:48:01;;;;;;;24.80;13.80;;;;;;;;;;6202690;23;20176;-90
2021/09/22 05:51:25;;;;;;;27.65;15.30;;;;;;;;;;6200941;23;20152;-90
2021/09/22 05:54:50;;;;;;;29.13;16.05;;;;;;;;;;6175963;23;20173;-91
2021/09/22 06:01:54;;;;;;;28.52;14.88;;;;;;;;;;6173011;23;20192;-92
2021/09/22 12:32:32;;;;;;;9.63;4.40;;;;;;;;;;6179723;22;20212;-92
2021/09/22 12:35:38;;;;;;;10.30;4.63;;;;;;;;;;6203385;23;20200;-94
2021/09/22 12:38:52;;;;;;;12.25;5.63;;;;;;;;;;6202518;22;20167;-91
2021/09/22 12:41:58;;;;;;;13.75;4.53;;;;;;;;;;6204671;22;20214;-90
2021/09/22 12:45:04;;;;;;;9.20;4.40;;;;;;;;;;6203026;23;20172;-92
2021/09/22 12:48:11;;;;;;;9.45;4.03;;;;;;;;;;6207306;22;20167;-91
2021/09/22 12:51:18;;;;;;;11.90;3.92;;;;;;;;;;6202788;22;20164;-92
2021/09/22 12:54:24;;;;;;;12.48;4.47;;;;;;;;;;6204295;23;20175;-91
2021/09/22 12:57:40;;;;;;;14.15;4.40;;;;;;;;;;6202944;23;20176;-91
2021/09/22 13:00:54;;;;;;;11.98;4.03;;;;;;;;;;6203543;23;20216;-91
2021/09/22 13:04:01;;;;;;;10.63;3.95;;;;;;;;;;6203643;22;20196;-91
2021/09/22 13:07:07;;;;;;;10.52;3.70;;;;;;;;;;6203784;22;20287;-91
2021/09/22 13:10:12;;;;;;;11.25;4.80;;;;;;;;;;6204397;23;20156;-91
2021/09/22 13:13:18;;;;;;;11.02;4.13;;;;;;;;;;6202426;22;20172;-92
2021/09/22 13:16:35;;;;;;;16.75;3.83;;;;;;;;;;6207943;22;20163;-90
2021/09/22 13:19:43;;;;;;;13.23;3.90;;;;;;;;;;6204715;23;20700;-91
2021/09/22 13:26:09;;;;;;;10.45;3.53;;;;;;;;;;6204537;23;20187;-92
2021/09/22 13:29:16;;;;;;;10.50;3.50;;;;;;;;;;6203827;23;20183;-89
2021/09/22 13:32:24;;;;;;;7.68;3.45;;;;;;;;;;6206133;23;20208;-91
2021/09/22 13:35:34;;;;;;;12.65;3.30;;;;;;;;;;6203927;23;20184;-92
2021/09/22 13:38:40;;;;;;;12.35;3.42;;;;;;;;;;6205984;23;20188;-93
2021/09/22 13:41:45;;;;;;;7.60;3.40;;;;;;;;;;6204075;22;20298;-91
2021/09/22 13:44:51;;;;;;;8.23;3.28;;;;;;;;;;6202819;23;20246;-92
2021/09/22 13:48:01;;;;;;;11.35;4.18;;;;;;;;;;6201707;23;20153;-91
2021/09/22 13:51:07;;;;;;;8.18;3.00;;;;;;;;;;6200124;22;20163;-92
2021/09/22 13:54:15;;;;;;;8.85;3.08;;;;;;;;;;6184579;23;20167;-92
2021/09/22 13:57:20;;;;;;;8.45;3.28;;;;;;;;;;6200865;23;20160;-92
2021/09/22 14:00:26;;;;;;;12.68;3.05;;;;;;;;;;6203912;22;20191;-92
2021/09/22 14:03:32;;;;;;;9.95;3.45;;;;;;;;;;6202838;22;20148;-92
2021/09/22 14:06:42;;;;;;;7.90;3.08;;;;;;;;;;6202290;23;20507;-92
2021/09/22 14:09:49;;;;;;;7.05;3.10;;;;;;;;;;6202924;23;20208;-91
2021/09/22 14:12:59;;;;;;;11.95;3.72;;;;;;;;;;6203063;22;20215;-93
2021/09/22 14:16:07;;;;;;;10.82;3.00;;;;;;;;;;6203261;23;20180;-92
2021/09/22 14:19:12;;;;;;;12.63;3.45;;;;;;;;;;6203498;22;20216;-91
2021/09/22 14:22:20;;;;;;;10.15;3.10;;;;;;;;;;6204950;22;20179;-92
2021/09/22 14:25:25;;;;;;;12.15;2.80;;;;;;;;;;6202437;22;20167;-90
2021/09/22 14:28:33;;;;;;;8.23;2.90;;;;;;;;;;6203190;22;20167;-92
2021/09/22 14:31:39;;;;;;;9.18;2.78;;;;;;;;;;6200857;23;20156;-90
2021/09/22 14:34:45;;;;;;;8.27;2.97;;;;;;;;;;6200933;22;20256;-91
2021/09/22 14:37:52;;;;;;;9.50;2.95;;;;;;;;;;6200979;22;20152;-91
2021/09/22 14:40:59;;;;;;;9.93;3.38;;;;;;;;;;6200190;22;20227;-89
2021/09/22 14:44:05;;;;;;;8.15;2.83;;;;;;;;;;6199519;23;20171;-92
2021/09/22 15:18:53;;;;;;;6.65;2.22;;;;;;;;;;6206330;22;20180;-92
2021/09/22 15:21:59;;;;;;;12.48;2.72;;;;;;;;;;6188508;23;20195;-92
2021/09/22 15:25:05;;;;;;;8.75;2.42;;;;;;;;;;6208195;22;20191;-91
2021/09/22 15:28:14;;;;;;;7.72;2.25;;;;;;;;;;6203231;23;20176;-93
2021/09/22 15:31:25;;;;;;;8.70;2.65;;;;;;;;;;6202586;22;20172;-91
2021/09/22 15:34:33;;;;;;;11.73;2.67;;;;;;;;;;6188708;23;20259;-92
2021/09/22 15:37:39;;;;;;;4.70;1.90;;;;;;;;;;6208659;22;20203;-92
2021/09/22 15:40:44;;;;;;;7.97;2.80;;;;;;;;;;6206823;23;20194;-92
2021/09/22 15:43:50;;;;;;;10.18;2.72;;;;;;;;;;6208523;23;20152;-91
2021/09/22 15:46:59;;;;;;;7.00;2.58;;;;;;;;;;6209665;22;20184;-92
2021/09/22 15:50:07;;;;;;;9.98;2.50;;;;;;;;;;6208173;22;20163;-89
2021/09/22 15:53:14;;;;;;;11.95;2.83;;;;;;;;;;6207354;23;20192;-89
2021/09/22 15:56:19;;;;;;;10.68;2.90;;;;;;;;;;6208465;23;20168;-89
2021/09/22 15:59:26;;;;;;;6.82;2.47;;;;;;;;;;6206106;23;20231;-89
2021/09/22 16:02:32;;;;;;;8.55;2.58;;;;;;;;;;6206588;23;20241;-89
2021/09/22 16:05:43;;;;;;;9.55;3.20;;;;;;;;;;6209364;23;20195;-89
2021/09/22 16:08:55;;;;;;;8.57;2.78;;;;;;;;;;6208844;22;20212;-89
2021/09/22 16:12:01;;;;;;;13.02;3.00;;;;;;;;;;6209721;23;20175;-91
2021/09/22 16:15:16;;;;;;;6.15;2.40;;;;;;;;;;6207796;22;20183;-91
2021/09/22 16:18:22;;;;;;;9.13;2.88;;;;;;;;;;6208712;22;20185;-92
2021/09/22 16:21:40;;;;;;;12.73;2.70;;;;;;;;;;6210103;22;20579;-90
2021/09/22 16:24:46;;;;;;;7.13;2.30;;;;;;;;;;6209974;23;20172;-90
2021/09/22 16:27:56;;;;;;;7.75;2.55;;;;;;;;;;6209056;22;20225;-90
2021/09/22 16:31:02;;;;;;;9.50;2.72;;;;;;;;;;6205409;23;20235;-89
2021/09/22 16:34:08;;;;;;;9.32;3.22;;;;;;;;;;6206156;22;20472;-90
2021/09/22 16:37:15;;;;;;;15.40;4.63;;;;;;;;;;6205713;23;20215;-92
2021/09/22 16:40:21;;;;;;;11.20;3.28;;;;;;;;;;6204955;22;20235;-90
2021/09/22 16:43:26;;;;;;;13.98;2.80;;;;;;;;;;6204193;23;20164;-92
2021/09/22 16:46:32;;;;;;;8.38;3.10;;;;;;;;;;6204870;22;20260;-91
2021/09/22 16:49:40;;;;;;;11.82;3.20;;;;;;;;;;6199615;23;20171;-90
2021/09/22 16:52:47;;;;;;;9.93;3.33;;;;;;;;;;6203478;22;20213;-91
2021/09/22 16:55:53;;;;;;;10.30;3.10;;;;;;;;;;6202397;23;20164;-91
2021/09/22 16:58:58;;;;;;;9.02;3.08;;;;;;;;;;6202000;23;20208;-92
2021/09/22 17:02:03;;;;;;;10.02;3.42;;;;;;;;;;6203038;23;20199;-91
2021/09/22 17:05:11;;;;;;;11.07;3.20;;;;;;;;;;6204246;23;20167;-90
2021/09/22 17:08:18;;;;;;;8.57;3.20;;;;;;;;;;6204382;22;20152;-91
2021/09/22 17:11:23;;;;;;;10.45;3.03;;;;;;;;;;6202675;22;20608;-91
2021/09/22 17:14:31;;;;;;;11.20;3.80;;;;;;;;;;6204285;23;20171;-90
2021/09/22 17:17:37;;;;;;;15.20;3.95;;;;;;;;;;6205820;23;20196;-91
2021/09/22 17:20:42;;;;;;;8.75;3.35;;;;;;;;;;6204042;22;20195;-92
2021/09/22 17:23:57;;;;;;;14.48;3.47;;;;;;;;;;6203042;22;20172;-91
2021/09/22 17:27:07;;;;;;;17.90;4.93;;;;;;;;;;6204116;23;20169;-91
2021/09/22 17:30:13;;;;;;;14.27;4.20;;;;;;;;;;6203697;23;20207;-91
2021/09/22 17:33:20;;;;;;;14.50;5.00;;;;;;;;;;6204811;23;20180;-92
2021/09/22 17:36:26;;;;;;;14.07;3.70;;;;;;;;;;6186655;23;20171;-93
2021/09/22 17:39:33;;;;;;;12.27;3.92;;;;;;;;;;6207182;22;20487;-91
2021/09/22 17:42:40;;;;;;;17.70;4.78;;;;;;;;;;6205263;23;20180;-91
2021/09/22 17:45:48;;;;;;;17.95;3.53;;;;;;;;;;6206590;23;20188;-90
2021/09/22 17:48:55;;;;;;;12.30;3.28;;;;;;;;;;6204040;22;20168;-90
2021/09/22 17:52:02;;;;;;;8.05;3.40;;;;;;;;;;6203364;22;20239;-92
2021/09/22 17:55:11;;;;;;;12.82;3.58;;;;;;;;;;6202777;23;20151;-91
2021/09/22 17:58:16;;;;;;;12.23;3.83;;;;;;;;;;6202369;22;20175;-91
2021/09/22 18:01:23;;;;;;;14.65;3.70;;;;;;;;;;6201394;23;20268;-91
2021/09/22 18:04:28;;;;;;;17.85;4.55;;;;;;;;;;6200701;23;20171;-91
2021/09/22 18:07:34;;;;;;;12.48;3.85;;;;;;;;;;6202057;22;20172;-90
2021/09/22 18:10:55;;;;;;;11.32;3.90;;;;;;;;;;6201465;23;20171;-89
2021/09/22 18:14:03;;;;;;;17.02;3.90;;;;;;;;;;6204708;23;20662;-90
2021/09/22 18:17:09;;;;;;;11.77;4.35;;;;;;;;;;6202504;23;20175;-91
2021/09/22 18:20:15;;;;;;;12.77;3.58;;;;;;;;;;6203523;23;20168;-91
2021/09/22 18:23:22;;;;;;;19.52;4.00;;;;;;;;;;6203551;23;20168;-90
2021/09/22 18:26:27;;;;;;;13.75;4.53;;;;;;;;;;6203496;23;20192;-91
2021/09/22 18:29:35;;;;;;;13.75;5.22;;;;;;;;;;6201827;23;20234;-91
2021/09/22 18:36:05;;;;;;;16.92;4.35;;;;;;;;;;6206967;22;20231;-91
2021/09/22 18:39:21;;;;;;;17.30;5.18;;;;;;;;;;6205484;22;20242;-90
2021/09/22 18:42:27;;;;;;;17.35;5.72;;;;;;;;;;6203712;23;20223;-92
2021/09/22 18:45:41;;;;;;;12.52;5.68;;;;;;;;;;6205062;22;20188;-90
2021/09/22 18:48:47;;;;;;;15.63;4.70;;;;;;;;;;6202969;22;20175;-92
2021/09/22 18:51:53;;;;;;;12.35;4.28;;;;;;;;;;6203523;22;20176;-92
2021/09/22 18:54:59;;;;;;;14.18;4.72;;;;;;;;;;6204129;22;20163;-92
2021/09/22 18:58:13;;;;;;;10.90;4.38;;;;;;;;;;6204738;23;20179;-92
2021/09/22 19:01:22;;;;;;;12.73;4.30;;;;;;;;;;6205292;22;20260;-92
2021/09/22 19:04:27;;;;;;;11.85;4.93;;;;;;;;;;6202519;22;20168;-92
2021/09/22 19:07:33;;;;;;;13.13;4.60;;;;;;;;;;6201404;23;20174;-91
2021/09/22 19:10:38;;;;;;;14.98;5.07;;;;;;;;;;6203975;23;20152;-91
2021/09/22 19:13:46;;;;;;;12.70;4.47;;;;;;;;;;6201505;22;20176;-91
2021/09/22 19:16:54;;;;;;;16.98;5.20;;;;;;;;;;6203631;22;20167;-91
2021/09/22 19:20:01;;;;;;;11.50;4.80;;;;;;;;;;6204819;22;20168;-92
2021/09/22 19:23:09;;;;;;;11.65;5.00;;;;;;;;;;6208002;22;20194;-91
2021/09/22 19:26:16;;;;;;;11.35;4.68;;;;;;;;;;6209105;22;20156;-91
2021/09/22 19:29:23;;;;;;;12.38;4.90;;;;;;;;;;6209594;22;20172;-91
2021/09/22 19:32:33;;;;;;;16.75;6.70;;;;;;;;;;6210496;22;20190;-91
2021/09/22 20:57:31;;;;;;;14.70;4.82;;;;;;;;;;6175813;23;20200;-92
2021/09/22 21:00:36;;;;;;;14.82;4.70;;;;;;;;;;6206202;22;20168;-89
2021/09/22 21:03:42;;;;;;;12.35;4.93;;;;;;;;;;6205362;23;20172;-90
2021/09/22 21:06:48;;;;;;;12.38;5.00;;;;;;;;;;6206760;23;20171;-89
2021/09/22 21:09:54;;;;;;;14.10;5.55;;;;;;;;;;6206055;22;20484;-91
2021/09/22 21:13:02;;;;;;;16.15;4.85;;;;;;;;;;6205889;22;20306;-91
2021/09/22 21:16:08;;;;;;;13.52;5.53;;;;;;;;;;6207166;22;20172;-91
2021/09/22 21:19:14;;;;;;;14.27;5.28;;;;;;;;;;6205655;23;20184;-89
2021/09/22 21:22:20;;;;;;;13.60;4.57;;;;;;;;;;6205585;22;20195;-91
2021/09/22 21:25:26;;;;;;;16.67;4.97;;;;;;;;;;6205039;23;20623;-92
2021/09/22 21:28:34;;;;;;;13.23;5.18;;;;;;;;;;6204624;23;20225;-92
2021/09/22 21:31:39;;;;;;;18.90;5.50;;;;;;;;;;6188062;23;20211;-92
2021/09/22 21:34:44;;;;;;;13.75;5.38;;;;;;;;;;6204220;23;20231;-90
2021/09/22 21:37:50;;;;;;;10.95;5.30;;;;;;;;;;6203519;22;20540;-91
2021/09/22 21:40:58;;;;;;;17.92;5.43;;;;;;;;;;6205188;23;20215;-91
2021/09/22 21:44:05;;;;;;;15.45;5.65;;;;;;;;;;6203551;23;20239;-91
2021/09/22 21:47:11;;;;;;;19.17;5.78;;;;;;;;;;6204019;23;20171;-89
2021/09/22 21:50:17;;;;;;;16.83;6.00;;;;;;;;;;6203754;23;20215;-90
2021/09/22 21:53:22;;;;;;;12.90;5.68;;;;;;;;;;6202336;22;20168;-90
2021/09/22 21:56:31;;;;;;;16.48;5.70;;;;;;;;;;6203592;22;20160;-92
2021/09/22 21:59:38;;;;;;;15.32;5.40;;;;;;;;;;6201610;22;20164;-90
2021/09/22 22:07:03;;;;;;;18.42;5.85;;;;;;;;;;6204296;23;20232;-91
2021/09/22 22:10:23;;;;;;;16.33;5.72;;;;;;;;;;6200792;22;20225;-92
2021/09/22 22:13:29;;;;;;;15.63;6.13;;;;;;;;;;6201545;23;20260;-90
2021/09/22 22:16:37;;;;;;;14.68;5.43;;;;;;;;;;6203485;23;20159;-91
2021/09/22 22:19:43;;;;;;;12.57;5.57;;;;;;;;;;6206392;22;20207;-92
2021/09/22 22:22:48;;;;;;;14.30;6.07;;;;;;;;;;6203885;23;20239;-91
2021/09/22 22:25:56;;;;;;;15.27;5.33;;;;;;;;;;6201782;23;20183;-91
2021/09/22 22:29:02;;;;;;;14.40;5.03;;;;;;;;;;6203022;23;20225;-91
2021/09/22 22:32:10;;;;;;;15.88;5.47;;;;;;;;;;6201865;23;20227;-91
2021/09/22 22:35:15;;;;;;;10.82;5.03;;;;;;;;;;6201740;23;20232;-91
2021/09/22 22:38:20;;;;;;;17.20;4.87;;;;;;;;;;6201824;23;20152;-91
2021/09/22 22:41:25;;;;;;;19.10;5.37;;;;;;;;;;6201080;23;20533;-90
2021/09/22 22:44:30;;;;;;;15.30;5.93;;;;;;;;;;6201113;23;20176;-88
2021/09/22 22:47:37;;;;;;;13.87;5.20;;;;;;;;;;6201686;22;20163;-90
2021/09/22 22:50:44;;;;;;;13.00;5.17;;;;;;;;;;6201979;23;20167;-91
2021/09/22 22:53:49;;;;;;;14.60;6.33;;;;;;;;;;6201291;23;20176;-91
2021/09/22 22:56:55;;;;;;;16.23;5.57;;;;;;;;;;6200401;22;20191;-91
2021/09/22 23:00:00;;;;;;;14.13;6.10;;;;;;;;;;6201140;22;20191;-88
2021/09/22 23:03:07;;;;;;;13.00;6.00;;;;;;;;;;6200334;22;20192;-90
2021/09/22 23:06:12;;;;;;;13.27;5.80;;;;;;;;;;6202598;22;20172;-90
2021/09/22 23:09:17;;;;;;;17.73;6.47;;;;;;;;;;6200312;23;20171;-93
2021/09/22 23:12:24;;;;;;;14.30;6.13;;;;;;;;;;6201188;22;20203;-91
2021/09/22 23:15:32;;;;;;;14.20;6.40;;;;;;;;;;6200432;23;20171;-88
2021/09/22 23:18:44;;;;;;;14.10;6.83;;;;;;;;;;6201602;22;20172;-90
2021/09/22 23:22:01;;;;;;;14.93;6.47;;;;;;;;;;6199427;23;20290;-90
2021/09/22 23:25:06;;;;;;;13.83;6.57;;;;;;;;;;6197203;22;20270;-90
2021/09/22 23:28:12;;;;;;;17.87;6.97;;;;;;;;;;6201669;22;20167;-91
2021/09/22 23:31:18;;;;;;;17.53;7.17;;;;;;;;;;6200980;22;20188;-89
2021/09/22 23:34:25;;;;;;;16.70;7.00;;;;;;;;;;6201895;23;20167;-91
2021/09/22 23:37:31;;;;;;;17.33;6.73;;;;;;;;;;6200347;22;20159;-91
2021/09/22 23:40:36;;;;;;;14.37;6.70;;;;;;;;;;6201077;23;20199;-90
2021/09/22 23:43:41;;;;;;;14.37;6.67;;;;;;;;;;6199613;23;20195;-91
2021/09/22 23:46:46;;;;;;;16.90;6.60;;;;;;;;;;6200397;22;20224;-90
2021/09/22 23:49:55;;;;;;;18.07;6.63;;;;;;;;;;6201508;23;20614;-91
2021/09/22 23:53:00;;;;;;;16.27;7.30;;;;;;;;;;6201341;23;20217;-89
2021/09/22 23:56:05;;;;;;;14.60;6.97;;;;;;;;;;6202669;23;20167;-91
2021/09/22 23:59:11;;;;;;;17.20;6.60;;;;;;;;;;6202471;23;20167;-91
